AirNav   Duncan Aviation - Near you to keep you flying
 
 1474 users online  

42MO Aire Parque Airport
Festus, Missouri, USA

GOING TO FESTUS?


FAA INFORMATION EFFECTIVE 03 NOVEMBER 2022

Location

FAA Identifier: 42MO
Lat/Long: 38-07-23.1930N 090-23-20.4380W
38-07.386550N 090-23.340633W
38.1231092,-90.3890106
(estimated)
Elevation: 710 ft. / 216 m (estimated)
Variation: 02E (1985)
From city: 7 miles S of FESTUS, MO
Time zone: UTC -6 (UTC -5 during Daylight Saving Time)
Zip code: 63028

Airport Operations

Airport use: Private use. Permission required prior to landing
Activation date: 11/1990
Control tower: no
ARTCC: KANSAS CITY CENTER
FSS: SAINT LOUIS FLIGHT SERVICE STATION
Attendance: IREG
Wind indicator: yes
Segmented circle: no

Nearby radio navigation aids

VOR radial/distance  VOR name  Freq  Var
FAMr344/28.0FARMINGTON VORTAC115.7001E

Airport Services

Runway Information

Runway 2/20

Dimensions: 2225 x 35 ft. / 678 x 11 m
Surface: turf, in fair condition
Runway edge markings: 02/20 MARKED WITH TIRES.
RUNWAY 2  RUNWAY 20
Traffic pattern: leftleft
Obstructions: 50 ft. trees, 20 ft. from runway30 ft. trees, 70 ft. from runway, 2:1 slope to clear

Airport Ownership and Management from official FAA records

Ownership: Privately-owned
Owner: MICHAEL R. BLANKE
2400 E. MICHAEL RD
FESTUS, MO 63028
Phone (573) 942-2441
Manager: MICHAEL R. BLANKE
2400 E. MICHAEL RD
FESTUS, MO 63028
Phone 573-942-2441

Airport Operational Statistics

Aircraft based on the field: 3
Single engine airplanes: 3
    
Aircraft operations: 60/year *
83% local general aviation
17% transient general aviation
* for 12-month period ending 27 January 1995

Additional Remarks

DEER ON & INVOF ARPT.
+100 FT ELECTRICAL TRANSMISSION LINES 400-600 FT WEST OF RY.
ULTRALIGHT ACTIVITY ON & INVOF ARPT.
FOR CD CTC ST LOUIS APCH AT 314-890-1018.

Instrument Procedures

There are no published instrument procedures at 42MO.

Some nearby airports with instrument procedures:

KFES - Festus Memorial Airport (4 nm N)
8WC - Washington County Airport (20 nm SW)
KFAM - Farmington Regional Airport (22 nm S)
KCPS - St Louis Downtown Airport (29 nm N)
KPCD - Perryville Regional Airport (29 nm SE)
 
Loc | Ops | Rwys | IFR | FBO | Links
Com | Nav | Svcs | Stats | Notes
Area around 42MO (Aire Parque Airport)
 
Road maps at: MapQuest Bing Google
 
Aerial photo
No photo
 
Sectional chart

 
Airport distance calculator
Flying to Aire Parque Airport? Find the distance to fly.

From to 42MO

Sunrise and sunset
Times for 29-Nov-2022
 Local
(UTC-6)
 Zulu
(UTC)
Morning civil twilight06:2912:29
Sunrise06:5812:58
Sunset16:4222:42
Evening civil twilight17:1123:11

Current date and time
Zulu (UTC)  29-Nov-2022 18:08:09
Local (UTC-6)  29-Nov-2022 12:08:09
 
METAR
KFAM 
21nm S 
291756Z AUTO 19014G20KT 10SM OVC007 11/10 A2968 RMK AO2 RAE31 SLP060 P0001 60001 T01110100 10117 20067 58020
KCPS 
29nm NE 
291753Z 19010G24KT 10SM OVC021 16/11 A2961 RMK AO2 SLP027 T01560111 10156 20072 58030 $
KPCD 
29nm SE 
291755Z AUTO 19012G17KT 7SM -RA SCT010 BKN013 OVC034 13/13 A2970 RMK AO2 LTG DSNT E P0011 60011 T01270127 10138 20080
KSAR 
33nm E 
291755Z AUTO 18010G19KT 4SM +RA BKN015 BKN021 OVC036 13/12 A2969 RMK AO2 LTG DSNT E P0003 60003 T01270116 10146 20065
KSUS 
34nm N 
291754Z 20015G26KT 10SM BKN031 17/12 A2955 RMK AO2 PK WND 20030/1720 SLP005 T01720117 10178 20072 58026
KBLV 
36nm NE 
291755Z 19013G22KT 10SM OVC014 14/11 A2995 RMK AO2A PK WND 22029/19 SLPNO T01390111 10162 20066 RVRNO PWINO FZRANO ALTSTG ESTMD $
KUUV 
37nm W 
291755Z AUTO 20013G24KT 10SM BKN024 OVC029 16/11 A2960 RMK AO2
KSTL 
38nm N 
291751Z 18016G24KT 10SM BKN027 BKN200 16/10 A2959 RMK AO2 PK WND 17028/1721 SLP020 T01610100 10161 20083 58027 $
KFYG 
40nm NW 
291755Z AUTO 20019G26KT 10SM BKN031 BKN037 19/13 A2955 RMK AO2
TAF
KCPS 
29nm NE 
291120Z 2912/3012 16011G20KT P6SM BKN250 FM291500 17016G32KT P6SM BKN250 FM292000 19015G30KT P6SM BKN025 FM300100 22013G24KT P6SM VCSH SCT025 BKN040 FM300300 29014G27KT P6SM BKN040
KSUS 
34nm N 
291120Z 2912/3012 15010G20KT P6SM BKN250 FM291500 17016G32KT P6SM BKN250 FM292000 19015G30KT P6SM SCT025 FM300000 22013G24KT P6SM VCSH SCT025 BKN040 FM300200 29014G27KT P6SM BKN040
KBLV 
36nm NE 
291600Z 2916/3022 17015G30KT 9999 FEW020 SCT150 BKN250 520003 QNH2970INS TEMPO 2916/2919 18020G35KT BECMG 2918/2919 19015G30KT 9999 VCSH BKN018 520003 QNH2959INS BECMG 2923/2924 20012G22KT 9999 VCSH BKN015 510003 QNH2957INS TEMPO 3000/3002 VRB15G25KT 6000 -SHRA VCTS BKN015CB BECMG 3001/3002 29018G30KT 9999 NSW BKN020 BKN035 620352 520003 QNH2960INS BECMG 3009/3010 30015G25KT 9999 SKC 510003 QNH3002INS TX18/2919Z TNM02/3012Z
NOTAMs
Click for the latest NOTAMs
NOTAMs are issued by the DoD/FAA and will open in a separate window not controlled by AirNav.

 

 
 

Would you like to see your business listed on this page?

 If your business provides an interesting product or service to pilots, flight crews, aircraft, or users of the Aire Parque Airport, you should consider listing it here.  To start the listing process, click on the button below
 
Add a business
 

Other Pages about Aire Parque Airport

Update a link
 
Copyright © AirNav, LLC. All rights reserved. Privacy Policy  Contact